Time;durP1;ratioP1;P1;durP2;ratioP2;P2;SDS_P1;SDS_P2;PMS_P1;PMS_P2;Temp;Humidity;BMP_temperature;BMP_pressure;BME280_temperature;BME280_humidity;BME280_pressure;Samples;Min_cycle;Max_cycle;Signal;HPM_P1;HPM_P2
2023/03/03 00:02:24;;;;;;;30.93;18.00;;;8.50;99.90;;;;;;5094030;28;20441;-84
2023/03/03 00:04:50;;;;;;;29.33;19.48;;;8.60;99.90;;;;;;5093742;28;20176;-83
2023/03/03 00:07:21;;;;;;;30.07;19.60;;;8.50;99.90;;;;;;5092763;28;20192;-81
2023/03/03 00:09:48;;;;;;;28.25;18.92;;;8.60;99.90;;;;;;5092918;28;20233;-83
2023/03/03 00:12:25;;;;;;;37.50;19.15;;;8.50;99.90;;;;;;5096119;28;20290;-83
2023/03/03 00:14:51;;;;;;;28.85;18.88;;;8.60;99.90;;;;;;5096575;28;20212;-80
2023/03/03 00:17:26;;;;;;;31.15;19.13;;;8.60;99.90;;;;;;5096281;28;20196;-81
2023/03/03 00:19:52;;;;;;;26.70;18.17;;;8.60;99.90;;;;;;5097333;28;20604;-81
2023/03/03 00:22:50;;;;;;;27.20;17.80;;;8.60;99.90;;;;;;5097738;28;20188;-81
2023/03/03 00:25:32;;;;;;;31.63;18.88;;;8.60;99.90;;;;;;5073873;28;20860;-84
2023/03/03 00:28:23;;;;;;;30.58;18.95;;;8.50;99.90;;;;;;5098144;28;20743;-84
2023/03/03 00:30:49;;;;;;;26.73;17.52;;;8.50;99.90;;;;;;5095979;28;20268;-83
2023/03/03 00:33:41;;;;;;;29.90;19.20;;;8.50;99.90;;;;;;5097117;28;20568;-84
2023/03/03 00:36:15;;;;;;;28.63;18.48;;;8.50;99.90;;;;;;5097381;28;20301;-84
2023/03/03 00:38:45;;;;;;;27.20;18.30;;;8.50;99.90;;;;;;5097060;28;20200;-85
2023/03/03 00:41:22;;;;;;;29.52;18.70;;;8.40;99.90;;;;;;5096679;28;20665;-83
2023/03/03 00:43:48;;;;;;;26.65;18.90;;;8.40;99.90;;;;;;5097127;28;20192;-81
2023/03/03 00:46:21;;;;;;;30.63;19.75;;;8.40;99.90;;;;;;5095629;28;20649;-81
2023/03/03 00:48:48;;;;;;;29.27;17.98;;;8.40;99.90;;;;;;5097043;28;20202;-81
2023/03/03 00:51:27;;;;;;;32.58;20.25;;;8.40;99.90;;;;;;5097062;28;20168;-83
2023/03/03 00:53:53;;;;;;;30.08;19.92;;;8.30;99.90;;;;;;5095486;28;20254;-82
2023/03/03 00:56:19;;;;;;;27.70;18.90;;;8.40;99.90;;;;;;5095401;28;20177;-84
2023/03/03 00:58:46;;;;;;;28.25;19.48;;;8.40;99.90;;;;;;5095380;28;20209;-84
2023/03/03 01:01:13;;;;;;;28.30;18.23;;;8.40;99.90;;;;;;5095264;28;20215;-81
2023/03/03 01:03:38;;;;;;;29.23;19.42;;;8.40;99.90;;;;;;5095327;28;20201;-81
2023/03/03 01:06:04;;;;;;;31.53;20.93;;;8.30;99.90;;;;;;5095231;28;20203;-81
2023/03/03 01:08:30;;;;;;;30.90;19.37;;;8.30;99.90;;;;;;5096449;28;20201;-81
2023/03/03 01:10:59;;;;;;;32.10;19.80;;;8.20;99.90;;;;;;5095257;28;20173;-81
2023/03/03 01:13:28;;;;;;;34.67;20.83;;;8.20;99.90;;;;;;5096240;28;20308;-81
2023/03/03 01:15:54;;;;;;;30.90;18.20;;;8.20;99.90;;;;;;5095048;28;20172;-84
2023/03/03 01:18:20;;;;;;;29.40;20.43;;;8.10;99.90;;;;;;5095487;28;20200;-81
2023/03/03 01:20:46;;;;;;;33.20;20.60;;;8.10;99.90;;;;;;5096450;28;20598;-81
2023/03/03 01:23:12;;;;;;;29.87;21.13;;;8.00;99.90;;;;;;5093701;28;20961;-82
2023/03/03 01:25:38;;;;;;;29.02;19.15;;;8.00;99.90;;;;;;5096143;28;20630;-83
2023/03/03 01:28:04;;;;;;;28.33;19.97;;;8.10;99.90;;;;;;5094798;28;20262;-81
2023/03/03 01:30:30;;;;;;;28.92;18.95;;;8.10;99.90;;;;;;5096134;28;20165;-84
2023/03/03 01:32:56;;;;;;;31.48;19.10;;;8.10;99.90;;;;;;5094663;28;20205;-84
2023/03/03 01:35:22;;;;;;;30.90;20.20;;;8.10;99.90;;;;;;5094768;28;20250;-83
2023/03/03 01:37:47;;;;;;;30.67;20.10;;;8.10;99.90;;;;;;5094861;28;20444;-81
2023/03/03 01:40:18;;;;;;;31.97;20.50;;;8.20;99.90;;;;;;5095914;28;20212;-83
2023/03/03 01:42:44;;;;;;;34.35;21.00;;;8.20;99.90;;;;;;5094887;28;20331;-84
2023/03/03 01:45:15;;;;;;;36.50;21.90;;;8.20;99.90;;;;;;5094694;28;20675;-80
2023/03/03 01:48:06;;;;;;;38.00;20.13;;;8.20;99.90;;;;;;5094652;28;20444;-81
2023/03/03 01:50:57;;;;;;;35.55;20.33;;;8.20;99.90;;;;;;5095821;28;20206;-84
2023/03/03 01:53:45;;;;;;;41.05;23.23;;;8.20;99.90;;;;;;5095669;28;20200;-81
2023/03/03 01:56:11;;;;;;;33.83;21.80;;;8.30;99.90;;;;;;5094299;28;20184;-84
2023/03/03 01:59:03;;;;;;;47.92;25.40;;;8.30;99.90;;;;;;5095557;28;20572;-83
2023/03/03 02:01:31;;;;;;;36.58;23.92;;;8.30;99.90;;;;;;5094444;28;20223;-81
2023/03/03 02:03:58;;;;;;;32.90;21.27;;;8.30;99.90;;;;;;5095611;28;20192;-84
2023/03/03 02:06:29;;;;;;;43.70;25.02;;;8.30;99.90;;;;;;5094277;28;20176;-81
2023/03/03 02:09:14;;;;;;;38.92;23.52;;;8.30;99.90;;;;;;5094077;28;20219;-84
2023/03/03 02:11:42;;;;;;;34.50;22.75;;;8.30;99.90;;;;;;5093986;28;20227;-84
2023/03/03 02:14:09;;;;;;;36.50;23.13;;;8.30;99.90;;;;;;5095364;28;20349;-81
2023/03/03 02:16:35;;;;;;;42.40;25.00;;;8.30;99.90;;;;;;5093959;28;20180;-81
2023/03/03 02:19:00;;;;;;;33.50;20.97;;;8.30;99.90;;;;;;5095141;28;20241;-85
2023/03/03 02:21:26;;;;;;;33.93;21.90;;;8.30;99.90;;;;;;5093800;28;20605;-84
2023/03/03 02:24:13;;;;;;;35.20;23.30;;;8.40;99.90;;;;;;5094091;28;20429;-84
2023/03/03 02:26:40;;;;;;;38.92;23.33;;;8.30;99.90;;;;;;5095171;28;20490;-84
2023/03/03 02:29:07;;;;;;;37.67;23.23;;;8.30;99.90;;;;;;5095018;28;20179;-81
2023/03/03 02:31:33;;;;;;;35.00;22.52;;;8.30;99.90;;;;;;5093752;28;20185;-81
2023/03/03 02:33:58;;;;;;;36.60;21.90;;;8.20;99.90;;;;;;5094604;28;20210;-81
2023/03/03 02:36:27;;;;;;;33.77;21.50;;;8.20;99.90;;;;;;5095045;28;20731;-83
2023/03/03 02:39:25;;;;;;;35.53;22.15;;;8.20;99.90;;;;;;5093482;28;20433;-81
2023/03/03 02:42:13;;;;;;;34.45;22.60;;;8.10;99.90;;;;;;5093564;28;20180;-81
2023/03/03 02:44:39;;;;;;;37.80;23.63;;;8.10;99.90;;;;;;5094713;28;20181;-80
2023/03/03 02:47:04;;;;;;;38.57;23.50;;;8.10;99.90;;;;;;5094975;28;20192;-84
2023/03/03 02:49:33;;;;;;;35.63;22.43;;;8.10;99.90;;;;;;5094731;28;20180;-85
2023/03/03 02:52:00;;;;;;;35.03;23.52;;;8.10;99.90;;;;;;5094746;28;20203;-83
2023/03/03 02:54:29;;;;;;;37.08;22.17;;;8.10;99.90;;;;;;5093952;28;20649;-81
2023/03/03 02:56:56;;;;;;;36.85;23.25;;;8.10;99.90;;;;;;5095327;28;20195;-81
2023/03/03 02:59:21;;;;;;;41.45;24.98;;;8.00;99.90;;;;;;5094484;28;20615;-81
2023/03/03 03:01:48;;;;;;;37.60;23.40;;;8.10;99.90;;;;;;5094611;28;20263;-83
2023/03/03 03:04:16;;;;;;;36.55;22.05;;;8.00;99.90;;;;;;5093153;28;20474;-82
2023/03/03 03:06:42;;;;;;;34.70;23.20;;;8.00;99.90;;;;;;5093134;28;20223;-84
2023/03/03 03:09:09;;;;;;;37.55;23.63;;;8.00;99.90;;;;;;5094336;28;20245;-84
2023/03/03 03:11:35;;;;;;;36.53;23.23;;;8.00;99.90;;;;;;5092988;28;20179;-81
2023/03/03 03:14:02;;;;;;;32.20;22.05;;;8.00;99.90;;;;;;5094086;28;20232;-84
2023/03/03 03:16:28;;;;;;;36.50;22.52;;;8.00;99.90;;;;;;5092842;28;20206;-83
2023/03/03 03:18:54;;;;;;;38.60;23.20;;;7.90;99.90;;;;;;5093228;28;20199;-81
2023/03/03 03:21:20;;;;;;;38.83;23.60;;;7.90;99.90;;;;;;5094368;28;20548;-84
2023/03/03 03:23:46;;;;;;;40.60;24.10;;;7.90;99.90;;;;;;5092665;28;20269;-83
2023/03/03 03:26:12;;;;;;;45.57;26.10;;;8.00;99.90;;;;;;5094191;28;20237;-84
2023/03/03 03:28:39;;;;;;;63.33;36.47;;;8.00;99.90;;;;;;5093861;28;20223;-83
2023/03/03 03:31:07;;;;;;;92.28;49.30;;;7.90;99.90;;;;;;5092726;28;20425;-83
2023/03/03 03:33:33;;;;;;;61.03;36.00;;;7.90;99.90;;;;;;5092594;28;20359;-81
2023/03/03 03:35:59;;;;;;;50.92;31.30;;;8.00;99.90;;;;;;5094254;28;20539;-81
2023/03/03 03:38:26;;;;;;;43.72;25.70;;;8.00;99.90;;;;;;5093812;28;20197;-81
2023/03/03 03:40:53;;;;;;;51.90;25.90;;;7.90;99.90;;;;;;5093750;28;20295;-84
2023/03/03 03:43:19;;;;;;;40.90;25.75;;;7.90;99.90;;;;;;5092658;28;20552;-83
2023/03/03 03:45:44;;;;;;;45.40;24.67;;;7.80;99.90;;;;;;5093002;28;20172;-81
2023/03/03 03:48:11;;;;;;;38.10;23.57;;;7.80;99.90;;;;;;5092414;28;20212;-83
2023/03/03 03:50:37;;;;;;;38.83;24.65;;;7.80;99.90;;;;;;5092770;28;20466;-83
2023/03/03 03:53:03;;;;;;;34.40;22.92;;;7.80;99.90;;;;;;5092457;28;20636;-81
2023/03/03 03:55:29;;;;;;;39.30;25.25;;;7.80;99.90;;;;;;5093772;28;20699;-81
2023/03/03 03:57:55;;;;;;;37.53;23.20;;;7.80;99.90;;;;;;5092555;28;20200;-84
2023/03/03 04:00:21;;;;;;;38.63;25.17;;;7.70;99.90;;;;;;5092381;28;20219;-81
2023/03/03 04:02:47;;;;;;;39.80;25.45;;;7.70;99.90;;;;;;5094217;28;20615;-81
2023/03/03 04:05:13;;;;;;;43.23;24.50;;;7.80;99.90;;;;;;5093778;28;20211;-82
2023/03/03 04:07:39;;;;;;;40.37;24.63;;;7.80;99.90;;;;;;5092573;28;20197;-81
2023/03/03 04:10:05;;;;;;;41.67;25.17;;;7.90;99.90;;;;;;5092396;28;20229;-81
2023/03/03 04:12:37;;;;;;;41.42;24.20;;;7.90;99.90;;;;;;5093683;28;20256;-84
2023/03/03 04:15:05;;;;;;;45.40;26.42;;;8.00;99.90;;;;;;5092585;28;20549;-81
2023/03/03 04:17:31;;;;;;;45.10;26.40;;;8.00;99.90;;;;;;5092218;28;20192;-84
2023/03/03 04:19:56;;;;;;;42.50;26.23;;;8.10;99.90;;;;;;5092191;28;20208;-81
2023/03/03 04:22:22;;;;;;;46.23;25.57;;;8.00;99.90;;;;;;5093888;28;20535;-81
2023/03/03 04:24:48;;;;;;;42.77;25.30;;;8.00;99.90;;;;;;5092188;28;20555;-82
2023/03/03 04:27:14;;;;;;;41.07;24.90;;;8.10;99.90;;;;;;5093725;28;20204;-81
2023/03/03 04:29:40;;;;;;;40.33;25.50;;;8.10;99.90;;;;;;5093373;28;20503;-84
2023/03/03 04:32:06;;;;;;;43.03;27.00;;;8.10;99.90;;;;;;5093619;28;20192;-81
2023/03/03 04:34:32;;;;;;;46.83;27.37;;;8.10;99.90;;;;;;5093282;28;20210;-84
2023/03/03 04:36:57;;;;;;;46.13;26.33;;;8.10;99.90;;;;;;5092004;28;20200;-84
2023/03/03 04:39:23;;;;;;;45.83;29.00;;;8.20;99.90;;;;;;5091903;28;20187;-83
2023/03/03 04:41:49;;;;;;;46.87;26.73;;;8.20;99.90;;;;;;5093404;28;20181;-85
2023/03/03 04:44:14;;;;;;;42.67;28.60;;;8.10;99.90;;;;;;5093312;28;20452;-84
2023/03/03 04:46:40;;;;;;;42.93;27.30;;;8.10;99.90;;;;;;5092040;28;20211;-80
2023/03/03 04:49:07;;;;;;;42.27;24.87;;;8.20;99.90;;;;;;5093300;28;20223;-84
2023/03/03 04:51:33;;;;;;;45.38;27.23;;;8.20;99.90;;;;;;5093318;28;20169;-81
2023/03/03 04:53:59;;;;;;;42.72;27.00;;;8.20;99.90;;;;;;5093130;28;20196;-84
2023/03/03 04:56:25;;;;;;;37.50;25.40;;;8.30;99.90;;;;;;5094655;28;20531;-84
2023/03/03 04:58:51;;;;;;;43.83;25.43;;;8.30;99.90;;;;;;5096718;28;20432;-81
2023/03/03 05:01:18;;;;;;;47.07;28.30;;;8.30;99.90;;;;;;5096716;28;20460;-81
2023/03/03 05:03:44;;;;;;;45.72;27.88;;;8.30;99.90;;;;;;5095166;28;20745;-84
2023/03/03 05:06:10;;;;;;;44.42;26.65;;;8.30;99.90;;;;;;5094553;28;20543;-81
2023/03/03 05:08:36;;;;;;;42.53;25.70;;;8.40;99.90;;;;;;5096398;28;20192;-81
2023/03/03 05:11:02;;;;;;;39.40;25.43;;;8.40;99.90;;;;;;5095117;28;20421;-84
2023/03/03 05:13:28;;;;;;;42.05;25.45;;;8.50;99.90;;;;;;5094875;28;20227;-81
2023/03/03 05:15:55;;;;;;;48.80;25.90;;;8.50;99.90;;;;;;5096300;28;20173;-84
2023/03/03 05:18:22;;;;;;;73.68;34.97;;;8.50;99.90;;;;;;5094966;28;20445;-81
2023/03/03 05:20:50;;;;;;;68.35;33.85;;;8.50;99.90;;;;;;5095926;28;20208;-84
2023/03/03 05:23:16;;;;;;;56.92;29.42;;;8.50;99.90;;;;;;5081697;28;20193;-81
2023/03/03 05:25:42;;;;;;;58.08;30.58;;;8.40;99.90;;;;;;5089269;28;20172;-80
2023/03/03 05:28:09;;;;;;;56.33;32.15;;;8.30;99.90;;;;;;5094668;28;20298;-80
2023/03/03 05:30:35;;;;;;;71.45;36.03;;;8.30;99.90;;;;;;5086079;28;20704;-79
2023/03/03 05:33:02;;;;;;;58.58;32.70;;;8.30;99.90;;;;;;5092812;28;20718;-79
2023/03/03 05:35:28;;;;;;;59.97;35.58;;;8.30;99.90;;;;;;5080902;28;20299;-86
2023/03/03 05:37:56;;;;;;;61.43;33.30;;;8.30;99.90;;;;;;5063125;28;20525;-77
2023/03/03 05:40:23;;;;;;;60.10;32.15;;;8.30;99.90;;;;;;5062124;28;20476;-78
2023/03/03 05:42:50;;;;;;;55.45;31.70;;;8.20;99.90;;;;;;5077079;28;20299;-86
2023/03/03 05:45:19;;;;;;;56.60;31.55;;;8.20;99.90;;;;;;5084409;28;20503;-77
2023/03/03 05:47:48;;;;;;;50.83;31.10;;;8.30;99.90;;;;;;5085192;28;20567;-87
2023/03/03 05:50:14;;;;;;;47.80;27.88;;;8.20;99.90;;;;;;5092730;28;20199;-85
2023/03/03 05:52:39;;;;;;;42.97;27.70;;;8.20;99.90;;;;;;5093240;28;20192;-85
2023/03/03 05:55:06;;;;;;;47.40;26.97;;;8.20;99.90;;;;;;5083475;28;20437;-81
2023/03/03 05:57:31;;;;;;;47.80;27.20;;;8.20;99.90;;;;;;5075887;28;20252;-86
2023/03/03 05:59:57;;;;;;;55.80;31.93;;;8.20;99.90;;;;;;5082338;28;20235;-77
2023/03/03 06:02:23;;;;;;;42.30;26.73;;;8.20;99.90;;;;;;5091210;28;20243;-85
2023/03/03 06:04:49;;;;;;;44.30;28.37;;;8.20;99.90;;;;;;5094887;28;20215;-85
2023/03/03 06:07:14;;;;;;;43.10;28.23;;;8.20;99.90;;;;;;5091661;28;20620;-84
2023/03/03 06:09:40;;;;;;;45.00;25.63;;;8.20;99.90;;;;;;5089116;28;20453;-83
2023/03/03 06:12:06;;;;;;;46.10;27.20;;;8.20;99.90;;;;;;5090411;28;20204;-79
2023/03/03 06:14:32;;;;;;;43.97;26.50;;;8.20;99.90;;;;;;5094532;28;20193;-85
2023/03/03 06:16:57;;;;;;;38.20;24.67;;;8.30;99.90;;;;;;5094341;28;20427;-84
2023/03/03 06:19:23;;;;;;;40.40;26.60;;;8.40;99.90;;;;;;5084615;28;20264;-80
2023/03/03 06:21:49;;;;;;;43.93;25.70;;;8.50;99.90;;;;;;5082649;28;20241;-80
2023/03/03 06:24:15;;;;;;;44.77;25.93;;;8.60;99.90;;;;;;5086941;28;20422;-79
2023/03/03 06:26:42;;;;;;;44.60;25.33;;;8.70;99.90;;;;;;5090136;28;20205;-85
2023/03/03 06:29:07;;;;;;;48.30;26.27;;;8.80;99.90;;;;;;5093263;28;20226;-86
2023/03/03 06:31:33;;;;;;;46.23;26.47;;;8.80;99.90;;;;;;5092921;28;20717;-82
2023/03/03 06:33:59;;;;;;;40.60;25.70;;;8.60;99.90;;;;;;5093139;28;20200;-84
2023/03/03 06:36:24;;;;;;;46.43;24.53;;;8.40;99.90;;;;;;5086590;28;20529;-86
2023/03/03 06:38:51;;;;;;;42.07;25.63;;;8.20;99.90;;;;;;5083345;28;20191;-85
2023/03/03 06:41:16;;;;;;;41.58;25.08;;;8.20;99.90;;;;;;5084501;28;20217;-84
2023/03/03 06:43:42;;;;;;;41.57;25.20;;;8.10;99.90;;;;;;5064638;28;20212;-83
2023/03/03 06:46:08;;;;;;;44.27;26.67;;;8.10;99.90;;;;;;5068827;28;20188;-84
2023/03/03 06:48:33;;;;;;;39.90;26.17;;;8.10;99.90;;;;;;5062520;28;20300;-84
2023/03/03 06:51:01;;;;;;;42.30;25.57;;;8.10;99.90;;;;;;5065518;28;20184;-83
2023/03/03 06:53:30;;;;;;;39.42;25.48;;;8.10;99.90;;;;;;5066390;28;20219;-84
2023/03/03 06:55:57;;;;;;;47.40;27.90;;;8.20;99.90;;;;;;5056807;28;20181;-84
2023/03/03 06:58:23;;;;;;;43.88;26.88;;;8.20;99.90;;;;;;5061407;28;20779;-83
2023/03/03 07:01:00;;;;;;;44.08;26.55;;;8.20;99.90;;;;;;5061459;28;20208;-84
2023/03/03 07:03:35;;;;;;;43.05;28.50;;;8.20;99.90;;;;;;5061126;28;20212;-83
2023/03/03 07:06:07;;;;;;;44.17;27.05;;;8.20;99.90;;;;;;5057635;28;20818;-83
2023/03/03 07:08:40;;;;;;;44.65;26.13;;;8.10;99.90;;;;;;5060034;28;20370;-84
2023/03/03 07:11:11;;;;;;;45.22;26.77;;;8.00;99.90;;;;;;5079424;28;20559;-83
2023/03/03 07:13:45;;;;;;;45.83;26.38;;;7.80;99.90;;;;;;5091735;28;20232;-84
2023/03/03 07:16:13;;;;;;;44.63;25.45;;;7.70;99.90;;;;;;5086810;28;20169;-83
2023/03/03 07:19:12;;;;;;;46.80;28.45;;;7.80;99.90;;;;;;5083135;28;20692;-83
2023/03/03 07:21:38;;;;;;;47.10;26.77;;;7.90;99.90;;;;;;5089836;28;20231;-81
2023/03/03 07:24:24;;;;;;;51.17;28.27;;;8.00;99.90;;;;;;5089842;28;20785;-81
2023/03/03 07:26:50;;;;;;;43.58;26.30;;;8.00;99.90;;;;;;5071795;28;20189;-81
2023/03/03 07:29:27;;;;;;;50.53;29.50;;;8.00;99.90;;;;;;5080842;28;20264;-81
2023/03/03 07:31:55;;;;;;;43.83;28.33;;;8.00;99.90;;;;;;5085853;28;20414;-82
2023/03/03 07:34:22;;;;;;;43.95;28.25;;;8.00;99.90;;;;;;5075546;28;20290;-81
2023/03/03 07:36:50;;;;;;;46.28;27.45;;;8.00;99.90;;;;;;5078658;28;20195;-82
2023/03/03 07:39:34;;;;;;;48.45;26.80;;;8.10;99.90;;;;;;5087902;28;20186;-80
2023/03/03 07:42:14;;;;;;;44.25;27.98;;;8.10;99.90;;;;;;5087138;28;20303;-82
2023/03/03 07:44:40;;;;;;;41.42;27.95;;;8.20;99.90;;;;;;5090852;28;20188;-82
2023/03/03 07:47:16;;;;;;;48.13;26.67;;;8.30;99.90;;;;;;5082029;28;20695;-82
2023/03/03 07:49:42;;;;;;;44.20;25.88;;;8.30;99.90;;;;;;5091672;28;20203;-81
2023/03/03 07:52:23;;;;;;;43.23;26.70;;;8.20;99.90;;;;;;5087205;28;20204;-82
2023/03/03 07:54:50;;;;;;;42.03;28.38;;;8.10;99.90;;;;;;5077586;28;20204;-82
2023/03/03 07:57:36;;;;;;;47.92;28.42;;;8.10;99.90;;;;;;5088764;28;20216;-82
2023/03/03 08:00:17;;;;;;;48.70;28.58;;;8.00;99.90;;;;;;5060763;28;20250;-81
2023/03/03 08:02:47;;;;;;;67.13;36.33;;;7.90;99.90;;;;;;5073408;28;20574;-82
2023/03/03 08:05:29;;;;;;;63.80;36.78;;;7.80;99.90;;;;;;5083790;28;20181;-81
2023/03/03 08:08:22;;;;;;;50.10;30.15;;;7.90;99.90;;;;;;5079160;28;20673;-81
2023/03/03 08:10:51;;;;;;;48.50;29.17;;;7.90;99.90;;;;;;5067768;28;20173;-81
2023/03/03 08:13:27;;;;;;;43.47;27.08;;;7.90;99.90;;;;;;5067737;28;20465;-82
2023/03/03 08:16:08;;;;;;;43.22;25.27;;;8.00;99.90;;;;;;5067404;28;20504;-81
2023/03/03 08:18:36;;;;;;;46.53;27.55;;;8.00;99.90;;;;;;5068652;28;20231;-82
2023/03/03 08:21:13;;;;;;;43.15;25.95;;;8.00;99.90;;;;;;5068951;28;20282;-81
2023/03/03 08:23:39;;;;;;;47.25;25.58;;;8.00;99.90;;;;;;5069982;28;20284;-81
2023/03/03 08:26:06;;;;;;;40.67;27.17;;;8.00;99.90;;;;;;5080295;28;20623;-82
2023/03/03 08:28:31;;;;;;;48.25;27.15;;;8.10;99.90;;;;;;5084145;28;20452;-82
2023/03/03 08:30:57;;;;;;;43.13;27.13;;;8.40;99.90;;;;;;5087606;28;20222;-82
2023/03/03 08:33:23;;;;;;;45.00;27.83;;;8.60;99.90;;;;;;5088066;28;20208;-81
2023/03/03 08:35:49;;;;;;;42.50;27.20;;;8.60;99.90;;;;;;5086968;28;20183;-82
2023/03/03 08:38:17;;;;;;;49.13;29.00;;;8.40;99.90;;;;;;5092297;28;21002;-80
2023/03/03 08:40:44;;;;;;;47.20;27.92;;;8.40;99.90;;;;;;5091913;28;20471;-78
2023/03/03 08:43:15;;;;;;;47.80;27.02;;;8.20;99.90;;;;;;5084666;28;20255;-79
2023/03/03 08:45:43;;;;;;;44.13;26.48;;;8.10;99.90;;;;;;5088703;28;20181;-79
2023/03/03 08:48:09;;;;;;;46.85;28.08;;;8.20;99.90;;;;;;5092845;28;20200;-78
2023/03/03 08:50:35;;;;;;;47.63;26.05;;;8.20;99.90;;;;;;5085293;28;20181;-78
2023/03/03 08:53:02;;;;;;;52.17;29.05;;;8.20;99.90;;;;;;5085947;28;20212;-81
2023/03/03 08:55:28;;;;;;;41.60;27.45;;;8.30;99.90;;;;;;5085010;28;20211;-78
2023/03/03 08:57:53;;;;;;;48.00;29.07;;;8.30;99.90;;;;;;5087359;28;20227;-79
2023/03/03 09:00:20;;;;;;;43.50;28.43;;;8.40;99.90;;;;;;5078441;28;20807;-78
2023/03/03 09:02:46;;;;;;;44.95;27.48;;;8.30;99.90;;;;;;5086677;28;20754;-78
2023/03/03 09:05:13;;;;;;;51.42;28.88;;;8.20;99.90;;;;;;5083135;28;20177;-79
2023/03/03 09:07:39;;;;;;;45.58;26.70;;;8.20;99.90;;;;;;5095032;28;20242;-78
2023/03/03 09:10:06;;;;;;;47.75;29.48;;;8.20;99.90;;;;;;5086521;28;20180;-78
2023/03/03 09:12:39;;;;;;;48.47;28.17;;;8.20;99.90;;;;;;5081672;28;20590;-77
2023/03/03 09:15:29;;;;;;;47.08;27.17;;;8.30;99.90;;;;;;5085361;28;20177;-78
2023/03/03 09:18:05;;;;;;;45.58;27.50;;;8.40;99.90;;;;;;5078291;28;20583;-79
2023/03/03 09:20:38;;;;;;;48.20;28.20;;;8.40;99.90;;;;;;5081909;28;20201;-78
2023/03/03 09:23:34;;;;;;;48.47;29.40;;;8.40;99.90;;;;;;5081226;28;20204;-79
2023/03/03 09:26:18;;;;;;;46.42;29.13;;;8.40;99.90;;;;;;5075969;28;20231;-78
2023/03/03 09:28:44;;;;;;;46.30;31.02;;;8.40;99.90;;;;;;5081749;28;20196;-79
2023/03/03 09:31:35;;;;;;;51.37;31.87;;;8.40;99.90;;;;;;5080886;28;20585;-79
2023/03/03 09:34:01;;;;;;;45.22;27.00;;;8.40;99.90;;;;;;5079952;28;20200;-79
2023/03/03 09:36:34;;;;;;;41.95;26.95;;;8.30;99.90;;;;;;5080497;28;20611;-78
2023/03/03 09:39:15;;;;;;;45.13;27.23;;;8.20;99.90;;;;;;5078205;28;20215;-78
2023/03/03 09:41:52;;;;;;;45.08;27.65;;;8.20;99.90;;;;;;5081946;28;20223;-79
2023/03/03 09:44:49;;;;;;;45.90;30.55;;;8.20;99.90;;;;;;5085100;28;20646;-80
2023/03/03 09:47:27;;;;;;;46.33;28.20;;;8.10;99.90;;;;;;5082534;28;20299;-79
2023/03/03 09:50:19;;;;;;;49.90;30.25;;;8.10;99.90;;;;;;5096119;28;20189;-80
2023/03/03 09:52:50;;;;;;;44.83;28.02;;;8.20;99.90;;;;;;5084463;28;20211;-80
2023/03/03 09:55:58;;;;;;;45.33;26.98;;;8.30;99.90;;;;;;5087519;28;20207;-79
2023/03/03 09:58:30;;;;;;;44.45;29.63;;;8.40;99.90;;;;;;5066583;28;20262;-79
2023/03/03 10:01:14;;;;;;;40.22;25.98;;;8.40;99.90;;;;;;5084086;28;20329;-80
2023/03/03 10:03:51;;;;;;;44.75;26.85;;;8.40;99.90;;;;;;5089525;28;20204;-82
2023/03/03 10:06:26;;;;;;;45.40;27.27;;;8.40;99.90;;;;;;5091238;28;20183;-80
2023/03/03 10:09:17;;;;;;;46.92;28.08;;;8.50;99.90;;;;;;5089399;28;20861;-78
2023/03/03 10:12:23;;;;;;;44.35;30.20;;;8.70;99.90;;;;;;5066162;28;20204;-78
2023/03/03 10:14:55;;;;;;;48.80;31.67;;;8.70;99.90;;;;;;5080005;28;20502;-80
2023/03/03 10:17:44;;;;;;;49.90;30.67;;;8.70;99.90;;;;;;5070061;28;20200;-78
2023/03/03 10:20:35;;;;;;;49.92;30.00;;;8.90;99.90;;;;;;5076252;28;20224;-79
2023/03/03 10:23:38;;;;;;;73.07;43.05;;;8.90;99.90;;;;;;5070920;28;20216;-79
2023/03/03 10:26:15;;;;;;;162.25;86.68;;;8.80;99.90;;;;;;5076465;28;20192;-78
2023/03/03 10:29:15;;;;;;;43.30;26.48;;;8.80;99.90;;;;;;5075977;28;20666;-78
2023/03/03 10:32:18;;;;;;;48.95;29.27;;;8.90;99.90;;;;;;5088289;28;20609;-79
2023/03/03 10:35:10;;;;;;;45.67;28.58;;;8.90;99.90;;;;;;5082207;28;20271;-79
2023/03/03 10:37:59;;;;;;;66.10;31.00;;;9.10;99.90;;;;;;5082261;28;20211;-79
2023/03/03 10:40:34;;;;;;;49.60;32.65;;;9.30;99.90;;;;;;5083247;28;20300;-79
2023/03/03 10:43:13;;;;;;;47.60;29.02;;;9.40;99.90;;;;;;5078347;28;20200;-78
2023/03/03 10:45:39;;;;;;;51.00;31.65;;;9.30;99.90;;;;;;5078665;28;20708;-79
2023/03/03 10:48:07;;;;;;;47.80;32.10;;;9.30;99.90;;;;;;5083671;28;20208;-79
2023/03/03 10:50:40;;;;;;;47.90;30.92;;;9.30;99.90;;;;;;5083082;28;20721;-79
2023/03/03 10:53:34;;;;;;;57.30;32.15;;;9.40;99.90;;;;;;5085698;28;20200;-78
2023/03/03 10:56:09;;;;;;;49.00;31.13;;;9.50;99.90;;;;;;5078726;28;20212;-78
2023/03/03 10:58:50;;;;;;;50.38;31.75;;;9.40;99.90;;;;;;5082820;28;20200;-79
2023/03/03 11:01:31;;;;;;;52.65;34.13;;;9.40;99.90;;;;;;5082163;28;20314;-79
2023/03/03 11:04:00;;;;;;;48.67;31.15;;;9.60;99.90;;;;;;5081555;28;20322;-78
2023/03/03 11:06:37;;;;;;;55.50;33.42;;;9.70;99.90;;;;;;5081245;28;20196;-78
2023/03/03 11:09:19;;;;;;;56.42;33.15;;;9.80;99.90;;;;;;5085946;28;20776;-80
2023/03/03 11:11:45;;;;;;;46.42;31.17;;;9.90;99.90;;;;;;5083398;28;20577;-79
2023/03/03 11:14:22;;;;;;;51.27;33.07;;;10.00;99.90;;;;;;5080999;28;20224;-79
2023/03/03 11:17:04;;;;;;;51.78;32.58;;;10.00;99.90;;;;;;5086544;28;20184;-79
2023/03/03 11:19:51;;;;;;;47.78;32.95;;;9.90;99.90;;;;;;5082863;28;20564;-79
2023/03/03 11:22:17;;;;;;;52.78;33.13;;;10.00;99.90;;;;;;5089638;28;20232;-79
2023/03/03 11:25:07;;;;;;;60.80;34.60;;;10.20;99.90;;;;;;5084945;28;20671;-79
2023/03/03 11:27:44;;;;;;;49.15;32.25;;;10.30;99.90;;;;;;5090556;28;20215;-79
2023/03/03 11:30:34;;;;;;;54.47;31.58;;;10.40;99.90;;;;;;5089866;28;20218;-79
2023/03/03 11:33:11;;;;;;;48.25;31.65;;;10.60;99.90;;;;;;5078035;28;20204;-79
2023/03/03 11:35:49;;;;;;;48.03;30.40;;;10.60;99.90;;;;;;5075157;28;20645;-79
2023/03/03 11:38:26;;;;;;;47.65;29.95;;;10.70;99.90;;;;;;5077937;28;20212;-79
2023/03/03 11:41:33;;;;;;;40.92;28.90;;;10.60;99.90;;;;;;5082568;28;20562;-80
2023/03/03 11:44:04;;;;;;;45.38;29.67;;;10.80;99.90;;;;;;5079726;28;20230;-79
2023/03/03 11:46:41;;;;;;;41.38;27.73;;;10.90;99.90;;;;;;5083681;28;20657;-79
2023/03/03 11:49:34;;;;;;;47.72;30.65;;;10.90;99.90;;;;;;5083026;28;20233;-79
2023/03/03 11:52:21;;;;;;;51.65;31.80;;;11.00;99.90;;;;;;5084023;28;20212;-80
2023/03/03 11:54:59;;;;;;;46.75;29.83;;;11.10;99.90;;;;;;5087938;28;20215;-80
2023/03/03 11:57:37;;;;;;;144.02;70.70;;;11.20;99.90;;;;;;5087482;28;20549;-80
2023/03/03 12:00:22;;;;;;;49.78;31.08;;;11.30;99.90;;;;;;5086034;28;20219;-79
2023/03/03 12:02:54;;;;;;;51.42;34.70;;;11.20;99.90;;;;;;5084515;28;20383;-80
2023/03/03 12:05:52;;;;;;;48.60;32.03;;;11.10;99.90;;;;;;5106236;28;20513;-80
2023/03/03 12:08:34;;;;;;;41.10;26.05;;;11.20;99.90;;;;;;5087456;28;20635;-80
2023/03/03 12:11:11;;;;;;;38.53;23.80;;;11.30;99.90;;;;;;5085970;28;20184;-80
2023/03/03 12:13:59;;;;;;;34.83;25.40;;;11.40;99.90;;;;;;5085291;28;20220;-79
2023/03/03 12:16:38;;;;;;;34.28;24.27;;;11.50;99.90;;;;;;5087063;28;20193;-80
2023/03/03 12:19:27;;;;;;;36.67;25.38;;;11.50;99.90;;;;;;5086779;28;20548;-79
2023/03/03 12:21:53;;;;;;;41.08;25.42;;;11.30;99.90;;;;;;5084121;28;20306;-80
2023/03/03 12:24:43;;;;;;;38.63;26.17;;;11.20;99.90;;;;;;5086662;28;20256;-81
2023/03/03 12:27:39;;;;;;;66.50;35.92;;;11.40;99.90;;;;;;5084645;28;20295;-81
2023/03/03 12:30:17;;;;;;;60.45;31.25;;;11.50;99.90;;;;;;5079113;28;20572;-80
2023/03/03 12:33:16;;;;;;;38.30;26.13;;;11.60;99.90;;;;;;5083864;28;20222;-81
2023/03/03 12:36:17;;;;;;;39.00;26.00;;;11.70;99.90;;;;;;5080205;28;20188;-81
2023/03/03 12:38:46;;;;;;;39.13;25.80;;;11.70;99.90;;;;;;5087393;28;20248;-80
2023/03/03 12:41:41;;;;;;;40.22;24.90;;;11.70;99.90;;;;;;5086811;28;20342;-80
2023/03/03 12:44:19;;;;;;;37.42;24.80;;;11.80;99.90;;;;;;5080946;28;20196;-80
2023/03/03 12:46:51;;;;;;;39.65;23.67;;;11.80;99.90;;;;;;5079846;28;20476;-80
2023/03/03 12:49:16;;;;;;;46.65;30.45;;;11.90;99.90;;;;;;5080420;28;20183;-78
2023/03/03 12:51:52;;;;;;;44.30;28.63;;;11.90;99.90;;;;;;5081299;28;20582;-79
2023/03/03 12:54:40;;;;;;;65.05;40.00;;;12.00;99.90;;;;;;5075094;28;20168;-78
2023/03/03 12:57:22;;;;;;;46.28;30.08;;;12.10;99.90;;;;;;5079644;28;20610;-79
2023/03/03 13:00:14;;;;;;;47.97;29.27;;;12.10;99.90;;;;;;5079831;28;20656;-78
2023/03/03 13:03:03;;;;;;;41.85;28.65;;;12.20;99.90;;;;;;5062267;28;20589;-79
2023/03/03 13:05:56;;;;;;;37.58;25.92;;;12.20;99.90;;;;;;5082872;28;20185;-80